Time;durP1;ratioP1;P1;durP2;ratioP2;P2;SDS_P1;SDS_P2;PMS_P1;PMS_P2;Temp;Humidity;BMP_temperature;BMP_pressure;BME280_temperature;BME280_humidity;BME280_pressure;Samples;Min_cycle;Max_cycle;Signal;HPM_P1;HPM_P2
2022/01/17 00:01:31;;;;;;;25.65;17.35;;;3.60;99.90;;;;;;4979806;28;20434;-71
2022/01/17 00:03:56;;;;;;;26.20;18.08;;;3.70;99.90;;;;;;4986540;28;20052;-71
2022/01/17 00:06:22;;;;;;;28.38;18.17;;;3.60;99.90;;;;;;4983163;28;20478;-70
2022/01/17 00:08:49;;;;;;;27.05;18.35;;;3.60;99.90;;;;;;4982272;28;20022;-71
2022/01/17 00:11:16;;;;;;;27.00;18.38;;;3.60;99.90;;;;;;4985904;28;20019;-71
2022/01/17 00:13:45;;;;;;;26.60;17.48;;;3.60;99.90;;;;;;4983976;28;20030;-71
2022/01/17 00:16:32;;;;;;;28.85;18.52;;;3.60;99.90;;;;;;4982913;28;20451;-71
2022/01/17 00:21:41;;;;;;;29.75;19.05;;;3.60;99.90;;;;;;4984678;28;20129;-70
2022/01/17 00:24:09;;;;;;;29.98;19.30;;;3.60;99.90;;;;;;4980439;28;20109;-70
2022/01/17 00:26:35;;;;;;;29.25;19.15;;;3.60;99.90;;;;;;4971556;28;20019;-70
2022/01/17 00:29:00;;;;;;;28.55;18.27;;;3.60;99.90;;;;;;4983466;28;20112;-70
2022/01/17 00:31:26;;;;;;;29.55;19.45;;;3.60;99.90;;;;;;4988011;28;20105;-70
2022/01/17 00:33:51;;;;;;;30.65;19.25;;;3.50;99.90;;;;;;4990174;28;20045;-70
2022/01/17 00:36:17;;;;;;;31.27;19.33;;;3.50;99.90;;;;;;4984609;28;20749;-70
2022/01/17 00:38:43;;;;;;;28.73;18.63;;;3.50;99.90;;;;;;4989354;28;20117;-71
2022/01/17 00:41:08;;;;;;;30.92;18.98;;;3.50;99.90;;;;;;4991049;28;20018;-72
2022/01/17 00:43:35;;;;;;;26.85;18.13;;;3.50;99.90;;;;;;4989100;28;20737;-72
2022/01/17 00:46:01;;;;;;;27.15;17.77;;;3.60;99.90;;;;;;4991299;28;20042;-72
2022/01/17 00:48:26;;;;;;;25.30;16.67;;;3.60;99.90;;;;;;4991507;28;20023;-72
2022/01/17 00:50:52;;;;;;;26.77;18.00;;;3.60;99.90;;;;;;4987589;28;20026;-72
2022/01/17 00:53:17;;;;;;;24.92;17.10;;;3.70;99.90;;;;;;4989940;28;20109;-72
2022/01/17 00:55:43;;;;;;;25.50;17.05;;;3.60;99.90;;;;;;4982350;28;20474;-71
2022/01/17 00:58:09;;;;;;;27.00;16.55;;;3.70;99.90;;;;;;4984846;28;20073;-71
2022/01/17 01:00:36;;;;;;;23.20;16.10;;;3.60;99.90;;;;;;4987262;28;20030;-71
2022/01/17 01:03:02;;;;;;;22.92;15.65;;;3.60;99.90;;;;;;4987961;28;20057;-71
2022/01/17 01:05:28;;;;;;;23.55;16.25;;;3.70;99.90;;;;;;4989631;28;20053;-71
2022/01/17 01:07:56;;;;;;;24.23;15.45;;;3.70;99.90;;;;;;4983819;28;20038;-71
2022/01/17 01:10:22;;;;;;;21.45;15.23;;;3.70;99.90;;;;;;4984847;28;20052;-72
2022/01/17 01:12:50;;;;;;;24.25;15.93;;;3.70;99.90;;;;;;4986426;28;20068;-71
2022/01/17 01:15:21;;;;;;;23.13;16.05;;;3.70;99.90;;;;;;4985963;28;20034;-71
2022/01/17 01:17:51;;;;;;;29.08;16.45;;;3.70;99.90;;;;;;4991733;28;20034;-71
2022/01/17 01:20:52;;;;;;;23.00;15.05;;;3.70;99.90;;;;;;4992485;28;20462;-71
2022/01/17 01:28:38;;;;;;;21.25;14.25;;;3.70;99.90;;;;;;4986475;28;20073;-72
2022/01/17 01:31:10;;;;;;;20.90;14.52;;;3.70;99.90;;;;;;4983663;28;20447;-71
2022/01/17 01:33:39;;;;;;;22.52;15.20;;;3.70;99.90;;;;;;4989825;28;20069;-71
2022/01/17 01:36:12;;;;;;;22.80;14.48;;;3.70;99.90;;;;;;4991627;28;20088;-71
2022/01/17 01:38:40;;;;;;;21.50;14.85;;;3.70;99.90;;;;;;4987239;28;20442;-70
2022/01/17 01:41:05;;;;;;;25.42;15.90;;;3.70;99.90;;;;;;4987090;28;20053;-70
2022/01/17 01:43:31;;;;;;;21.25;15.00;;;3.70;99.90;;;;;;4987934;28;20501;-70
2022/01/17 01:46:01;;;;;;;21.17;15.02;;;3.70;99.90;;;;;;4983806;28;20433;-72
2022/01/17 01:48:29;;;;;;;20.95;14.98;;;3.70;99.90;;;;;;4986751;28;20062;-71
2022/01/17 01:50:55;;;;;;;21.70;15.02;;;3.70;99.90;;;;;;4986963;28;20038;-70
2022/01/17 01:53:23;;;;;;;20.63;13.93;;;3.70;99.90;;;;;;4984833;28;20034;-71
2022/01/17 01:55:50;;;;;;;23.25;15.52;;;3.70;99.90;;;;;;4985853;28;20130;-71
2022/01/17 01:58:16;;;;;;;23.73;15.85;;;3.70;99.90;;;;;;4987144;28;20019;-71
2022/01/17 02:00:42;;;;;;;24.27;16.35;;;3.60;99.90;;;;;;4980721;28;20104;-71
2022/01/17 02:03:08;;;;;;;23.08;15.68;;;3.60;99.90;;;;;;4982884;28;20501;-71
2022/01/17 02:05:34;;;;;;;23.13;16.15;;;3.60;99.90;;;;;;4979245;28;20046;-71
2022/01/17 02:07:59;;;;;;;23.02;15.88;;;3.60;99.90;;;;;;4984518;28;20122;-71
2022/01/17 02:10:25;;;;;;;21.77;14.70;;;3.60;99.90;;;;;;4993863;28;20034;-71
2022/01/17 02:12:51;;;;;;;21.80;15.18;;;3.70;99.90;;;;;;4984656;28;20060;-71
2022/01/17 02:15:17;;;;;;;24.33;14.70;;;3.60;99.90;;;;;;4988533;28;20022;-71
2022/01/17 02:17:54;;;;;;;22.45;14.60;;;3.60;99.90;;;;;;4987646;28;20030;-71
2022/01/17 02:20:23;;;;;;;22.20;15.15;;;3.60;99.90;;;;;;4987347;28;20030;-71
2022/01/17 02:22:50;;;;;;;23.38;14.32;;;3.50;99.90;;;;;;4978029;28;20050;-71
2022/01/17 02:25:16;;;;;;;19.27;13.63;;;3.50;99.90;;;;;;4977680;28;20036;-71
2022/01/17 02:27:42;;;;;;;21.85;14.35;;;3.50;99.90;;;;;;4986504;28;20031;-71
2022/01/17 02:30:10;;;;;;;21.48;14.25;;;3.50;99.90;;;;;;4951492;28;20035;-71
2022/01/17 02:32:36;;;;;;;20.90;13.23;;;3.50;99.90;;;;;;4957863;28;20110;-71
2022/01/17 02:35:20;;;;;;;18.98;13.43;;;3.60;99.90;;;;;;4963531;28;20030;-72
2022/01/17 02:37:45;;;;;;;;;;;3.60;99.90;;;;;;4961228;28;20399;-72
2022/01/17 02:40:13;;;;;;;20.65;12.60;;;3.60;99.90;;;;;;4966571;28;19920;-72
2022/01/17 02:42:38;;;;;;;20.00;12.85;;;3.70;99.90;;;;;;4964280;28;20508;-72
2022/01/17 02:45:20;;;;;;;18.92;12.15;;;3.60;99.90;;;;;;4960138;28;20034;-71
2022/01/17 02:47:46;;;;;;;18.35;12.07;;;3.70;99.90;;;;;;4954780;28;20034;-71
2022/01/17 02:50:12;;;;;;;16.92;11.82;;;3.70;99.90;;;;;;4953463;28;20603;-71
2022/01/17 02:52:38;;;;;;;16.70;11.43;;;3.70;99.90;;;;;;4956750;28;20039;-71
2022/01/17 02:55:04;;;;;;;16.23;11.50;;;3.70;99.90;;;;;;4960676;28;20502;-71
2022/01/17 02:57:33;;;;;;;15.90;10.95;;;3.70;99.90;;;;;;4960812;28;20052;-71
2022/01/17 02:59:59;;;;;;;15.73;11.18;;;3.70;99.90;;;;;;4960678;28;20041;-71
2022/01/17 03:02:24;;;;;;;17.73;12.00;;;3.70;99.90;;;;;;4964187;28;20386;-71
2022/01/17 03:04:50;;;;;;;18.65;11.32;;;3.70;99.90;;;;;;4967865;28;20038;-71
2022/01/17 03:07:16;;;;;;;16.27;10.98;;;3.70;99.90;;;;;;4964411;28;20101;-71
2022/01/17 03:09:54;;;;;;;16.55;11.13;;;3.70;99.90;;;;;;4956564;28;20313;-72
2022/01/17 03:12:20;;;;;;;17.17;11.65;;;3.80;99.90;;;;;;4954209;28;20054;-70
2022/01/17 03:14:45;;;;;;;17.10;11.20;;;3.70;99.90;;;;;;4962136;28;20027;-71
2022/01/17 03:17:11;;;;;;;15.57;10.77;;;3.80;99.90;;;;;;4961204;28;20106;-71
2022/01/17 03:19:36;;;;;;;20.55;11.23;;;3.80;99.90;;;;;;4963456;28;20653;-71
2022/01/17 03:22:03;;;;;;;17.13;11.80;;;3.80;99.90;;;;;;4963809;28;20031;-71
2022/01/17 03:24:28;;;;;;;17.85;11.48;;;3.80;99.90;;;;;;4961059;28;20097;-71
2022/01/17 03:26:54;;;;;;;17.63;11.50;;;3.80;99.90;;;;;;4958181;28;20038;-71
2022/01/17 03:29:20;;;;;;;19.88;11.57;;;3.80;99.90;;;;;;4967762;28;20043;-71
2022/01/17 03:31:45;;;;;;;17.63;11.73;;;3.80;99.90;;;;;;4980885;28;20088;-71
2022/01/17 03:34:11;;;;;;;16.38;11.30;;;3.80;99.90;;;;;;4988704;28;20053;-71
2022/01/17 03:36:37;;;;;;;18.00;11.63;;;3.80;99.90;;;;;;4985668;28;20717;-71
2022/01/17 03:39:02;;;;;;;17.98;11.57;;;3.80;99.90;;;;;;4978402;28;20039;-71
2022/01/17 03:41:28;;;;;;;17.23;11.95;;;3.80;99.90;;;;;;4981140;28;20038;-71
2022/01/17 03:43:54;;;;;;;16.92;11.98;;;3.80;99.90;;;;;;4980719;28;20034;-71
2022/01/17 03:46:19;;;;;;;18.13;12.07;;;3.80;99.90;;;;;;4983730;28;20019;-72
2022/01/17 03:48:45;;;;;;;22.25;13.85;;;3.80;99.90;;;;;;4975994;28;20522;-72
2022/01/17 03:51:10;;;;;;;19.13;13.50;;;3.80;99.90;;;;;;4983075;28;20041;-71
2022/01/17 03:53:36;;;;;;;22.67;13.40;;;3.80;99.90;;;;;;4983753;28;20038;-72
2022/01/17 03:56:02;;;;;;;20.20;13.85;;;3.80;99.90;;;;;;4971854;28;20031;-71
2022/01/17 03:58:28;;;;;;;22.27;13.32;;;3.80;99.90;;;;;;4986701;28;20061;-71
2022/01/17 04:00:56;;;;;;;20.23;13.60;;;3.70;99.90;;;;;;4978719;28;20057;-71
2022/01/17 04:03:22;;;;;;;22.65;14.27;;;3.80;99.90;;;;;;4981666;28;20042;-71
2022/01/17 04:05:48;;;;;;;19.38;13.07;;;3.80;99.90;;;;;;4980441;28;20030;-71
2022/01/17 04:08:14;;;;;;;23.20;14.05;;;3.80;99.90;;;;;;4977273;28;20438;-70
2022/01/17 04:10:40;;;;;;;20.92;13.93;;;3.80;99.90;;;;;;4975690;28;20568;-71
2022/01/17 04:13:07;;;;;;;20.95;13.13;;;3.80;99.90;;;;;;4974133;28;20033;-71
2022/01/17 04:15:35;;;;;;;21.70;13.80;;;3.80;99.90;;;;;;4978183;28;20034;-71
2022/01/17 04:18:05;;;;;;;19.35;13.18;;;3.80;99.90;;;;;;4983485;28;20537;-71
2022/01/17 04:20:31;;;;;;;22.17;13.13;;;3.90;99.90;;;;;;4978566;28;20533;-71
2022/01/17 04:22:59;;;;;;;21.75;14.30;;;3.80;99.90;;;;;;4980140;28;20037;-71
2022/01/17 04:25:29;;;;;;;19.85;13.20;;;3.90;99.90;;;;;;4971953;28;20034;-71
2022/01/17 04:27:55;;;;;;;19.08;12.38;;;3.90;99.90;;;;;;4977897;28;20447;-71
2022/01/17 04:30:21;;;;;;;21.50;12.43;;;3.90;99.90;;;;;;4981323;28;20042;-71
2022/01/17 04:32:47;;;;;;;23.55;12.77;;;3.90;99.90;;;;;;4981719;28;20117;-71
2022/01/17 04:35:14;;;;;;;22.02;11.60;;;;;;;;;;4979342;28;20537;-71
2022/01/17 04:37:41;;;;;;;20.92;8.15;;;4.00;99.90;;;;;;4980668;28;20030;-71
2022/01/17 04:40:07;;;;;;;19.45;6.22;;;4.10;99.90;;;;;;4982569;28;20022;-71
2022/01/17 04:42:33;;;;;;;17.05;6.20;;;4.30;99.90;;;;;;4978358;28;20390;-71
2022/01/17 04:45:08;;;;;;;14.43;5.38;;;4.40;99.90;;;;;;4980237;28;20019;-71
2022/01/17 04:47:36;;;;;;;15.10;4.70;;;4.40;99.90;;;;;;4971249;28;20461;-71
2022/01/17 04:50:07;;;;;;;19.90;4.88;;;4.50;99.90;;;;;;4982040;28;20037;-70
2022/01/17 04:52:35;;;;;;;15.63;4.78;;;4.60;99.90;;;;;;4984017;28;20034;-71
2022/01/17 04:55:02;;;;;;;18.60;4.57;;;4.60;99.90;;;;;;4980371;28;20637;-71
2022/01/17 04:57:28;;;;;;;14.18;4.38;;;4.60;99.90;;;;;;4981302;28;20041;-71
2022/01/17 04:59:54;;;;;;;17.38;4.07;;;4.70;99.90;;;;;;4978719;28;20393;-71
2022/01/17 05:02:19;;;;;;;13.77;4.10;;;4.70;99.90;;;;;;4978569;28;20101;-71
2022/01/17 05:04:45;;;;;;;14.93;4.30;;;4.70;99.90;;;;;;4976997;28;20454;-71
2022/01/17 05:07:12;;;;;;;19.35;4.65;;;4.60;99.90;;;;;;4977364;28;20034;-72
2022/01/17 05:09:42;;;;;;;12.57;4.18;;;4.60;99.90;;;;;;4981825;28;20150;-71
2022/01/17 05:12:09;;;;;;;16.00;4.25;;;4.60;99.90;;;;;;4981405;28;20089;-71
2022/01/17 05:14:35;;;;;;;15.98;4.57;;;4.60;99.90;;;;;;4969099;28;20081;-71
2022/01/17 05:17:10;;;;;;;20.02;5.07;;;4.60;99.90;;;;;;4980330;28;20113;-71
2022/01/17 05:19:55;;;;;;;19.52;5.18;;;4.60;99.90;;;;;;4983224;28;20569;-70
2022/01/17 05:22:21;;;;;;;18.77;5.10;;;4.60;99.90;;;;;;4983665;28;20507;-70
2022/01/17 05:24:47;;;;;;;15.35;5.40;;;4.50;99.90;;;;;;4979558;28;20070;-71
2022/01/17 05:27:13;;;;;;;19.77;5.45;;;4.50;99.90;;;;;;4975219;28;20473;-71
2022/01/17 05:29:39;;;;;;;18.17;5.22;;;4.60;99.90;;;;;;4981898;28;20054;-71
2022/01/17 05:32:05;;;;;;;17.83;4.68;;;4.60;99.90;;;;;;4975489;28;20666;-71
2022/01/17 05:34:34;;;;;;;15.98;4.55;;;4.60;99.90;;;;;;4979960;28;20030;-70
2022/01/17 05:37:03;;;;;;;19.42;4.45;;;4.60;99.90;;;;;;4972126;28;20093;-70
2022/01/17 05:39:29;;;;;;;18.23;4.55;;;4.60;99.90;;;;;;4979540;28;20061;-70
2022/01/17 05:41:54;;;;;;;16.33;4.45;;;4.60;99.90;;;;;;4980941;28;20532;-71
2022/01/17 05:44:20;;;;;;;21.65;5.45;;;4.60;99.90;;;;;;4984023;28;20255;-71
2022/01/17 05:46:46;;;;;;;15.02;5.28;;;4.70;99.90;;;;;;4978973;28;20038;-71
2022/01/17 05:49:11;;;;;;;19.17;6.03;;;4.60;99.90;;;;;;4984711;28;20034;-71
2022/01/17 05:51:37;;;;;;;21.15;6.47;;;4.60;99.90;;;;;;4985547;28;20067;-71
2022/01/17 05:54:03;;;;;;;24.17;7.18;;;4.60;99.90;;;;;;4985818;28;20398;-71
2022/01/17 05:56:28;;;;;;;23.10;8.20;;;4.60;99.90;;;;;;4981073;28;20027;-71
2022/01/17 05:58:54;;;;;;;19.92;8.00;;;4.60;99.90;;;;;;4978355;28;20031;-71
2022/01/17 06:01:20;;;;;;;18.58;8.93;;;4.60;99.90;;;;;;4979589;28;20019;-71
2022/01/17 06:03:45;;;;;;;26.52;9.40;;;4.60;99.90;;;;;;4973907;28;20498;-72
2022/01/17 06:06:11;;;;;;;25.95;9.57;;;4.60;99.90;;;;;;4973040;28;20034;-71
2022/01/17 06:08:37;;;;;;;29.88;9.68;;;4.60;99.90;;;;;;4986253;28;20453;-72
2022/01/17 06:11:03;;;;;;;25.77;8.95;;;4.60;99.90;;;;;;4984285;28;20038;-71
2022/01/17 06:13:29;;;;;;;27.10;8.57;;;4.60;99.90;;;;;;4986074;28;20026;-72
2022/01/17 06:15:54;;;;;;;22.17;8.95;;;4.60;99.90;;;;;;4974972;28;20027;-71
2022/01/17 06:18:20;;;;;;;20.08;8.20;;;4.70;99.90;;;;;;4983859;28;20545;-72
2022/01/17 06:20:45;;;;;;;23.30;8.10;;;4.60;99.90;;;;;;4976509;28;20050;-72
2022/01/17 06:23:11;;;;;;;23.13;8.35;;;4.60;99.90;;;;;;4977888;28;20121;-72
2022/01/17 06:25:37;;;;;;;18.77;7.75;;;4.60;99.90;;;;;;4979057;28;20089;-71
2022/01/17 06:28:02;;;;;;;21.60;8.70;;;4.60;99.90;;;;;;4983069;28;20038;-71
2022/01/17 06:30:28;;;;;;;22.63;8.82;;;4.60;99.90;;;;;;4979224;28;20034;-72
2022/01/17 06:32:54;;;;;;;20.98;8.13;;;4.70;99.90;;;;;;4986638;28;20713;-71
2022/01/17 06:35:19;;;;;;;25.30;7.50;;;4.70;99.90;;;;;;4978678;28;20081;-70
2022/01/17 06:37:46;;;;;;;22.65;8.18;;;4.70;99.90;;;;;;4979997;28;20120;-70
2022/01/17 06:40:12;;;;;;;22.02;7.65;;;4.70;99.90;;;;;;4980618;28;20019;-70
2022/01/17 06:42:38;;;;;;;23.48;7.40;;;4.70;99.90;;;;;;4971830;28;20030;-70
2022/01/17 06:45:05;;;;;;;19.23;6.80;;;4.70;99.90;;;;;;4975988;28;20033;-71
2022/01/17 06:47:32;;;;;;;16.83;6.47;;;4.70;99.90;;;;;;4983952;28;20034;-71
2022/01/17 06:49:58;;;;;;;21.50;6.88;;;4.70;99.90;;;;;;4979928;28;20027;-70
2022/01/17 06:52:23;;;;;;;21.08;7.03;;;4.70;99.90;;;;;;4979846;28;20044;-71
2022/01/17 06:54:52;;;;;;;19.15;6.53;;;4.80;99.90;;;;;;4974530;28;20031;-71
2022/01/17 06:57:18;;;;;;;20.30;6.20;;;4.80;99.90;;;;;;4984628;28;20516;-71
2022/01/17 06:59:44;;;;;;;27.80;6.65;;;4.80;99.90;;;;;;4977059;28;20221;-70
2022/01/17 07:02:10;;;;;;;20.73;6.03;;;4.80;99.90;;;;;;4981570;28;20019;-71
2022/01/17 07:04:35;;;;;;;23.45;5.82;;;4.70;99.90;;;;;;4972210;28;20629;-71
2022/01/17 07:07:02;;;;;;;18.42;5.93;;;4.70;99.90;;;;;;4979712;28;20391;-76
2022/01/17 07:09:29;;;;;;;22.88;6.32;;;4.70;99.90;;;;;;4983037;28;20038;-76
2022/01/17 07:11:58;;;;;;;21.00;6.47;;;4.60;99.90;;;;;;4973929;28;20037;-75
2022/01/17 07:14:28;;;;;;;23.45;6.55;;;4.70;99.90;;;;;;4968636;28;20086;-75
2022/01/17 07:16:53;;;;;;;23.55;6.10;;;4.60;99.90;;;;;;4974167;28;20030;-75
2022/01/17 07:19:19;;;;;;;22.38;6.20;;;4.60;99.90;;;;;;4986999;28;20019;-76
2022/01/17 07:21:45;;;;;;;19.63;5.80;;;4.60;99.90;;;;;;4980285;28;20031;-75
2022/01/17 07:24:11;;;;;;;21.67;7.03;;;4.60;99.90;;;;;;4980522;28;20026;-76
2022/01/17 07:26:37;;;;;;;22.83;6.75;;;4.70;99.90;;;;;;4982522;28;20122;-77
2022/01/17 07:29:08;;;;;;;24.98;6.50;;;4.70;99.90;;;;;;4971745;28;20577;-76
2022/01/17 07:31:35;;;;;;;25.38;5.80;;;4.70;99.90;;;;;;4985141;28;20046;-76
2022/01/17 07:34:01;;;;;;;24.45;6.85;;;4.70;99.90;;;;;;4976651;28;20042;-76
2022/01/17 07:36:27;;;;;;;16.65;5.80;;;4.70;99.90;;;;;;4983052;28;20709;-76
2022/01/17 07:38:53;;;;;;;21.08;6.97;;;4.70;99.90;;;;;;4987102;28;20109;-76
2022/01/17 07:41:18;;;;;;;20.65;6.93;;;4.70;99.90;;;;;;4977692;28;20030;-78
2022/01/17 07:43:44;;;;;;;16.02;5.85;;;4.70;99.90;;;;;;4984718;28;20117;-76
2022/01/17 07:46:23;;;;;;;20.90;6.47;;;4.70;99.90;;;;;;4974106;28;20033;-79
2022/01/17 07:49:10;;;;;;;44.10;6.47;;;4.70;99.90;;;;;;4982773;28;20034;-76
2022/01/17 07:51:36;;;;;;;22.17;6.82;;;4.70;99.90;;;;;;4981872;28;20046;-76
2022/01/17 07:54:03;;;;;;;19.05;6.13;;;4.80;99.90;;;;;;4972708;28;20041;-78
2022/01/17 07:56:30;;;;;;;21.15;6.20;;;4.80;99.90;;;;;;4970249;28;20026;-79
2022/01/17 07:58:56;;;;;;;16.10;5.70;;;4.80;99.90;;;;;;4977534;28;20026;-78
2022/01/17 08:01:22;;;;;;;17.65;6.10;;;4.80;99.90;;;;;;4977272;28;20449;-79
2022/01/17 08:03:47;;;;;;;14.45;5.93;;;4.80;99.90;;;;;;4971811;28;20337;-78
2022/01/17 08:06:13;;;;;;;19.02;6.75;;;4.80;99.90;;;;;;4981666;28;20057;-78
2022/01/17 08:08:38;;;;;;;17.63;6.30;;;4.80;99.90;;;;;;4983470;28;20546;-78
2022/01/17 08:11:05;;;;;;;18.77;5.72;;;;;;;;;;4983030;28;20053;-78
2022/01/17 08:13:31;;;;;;;19.85;6.38;;;;;;;;;;4982561;28;20100;-78
2022/01/17 08:15:57;;;;;;;17.75;6.38;;;5.00;99.90;;;;;;4970968;28;20485;-79
2022/01/17 08:18:22;;;;;;;17.95;6.55;;;5.10;99.90;;;;;;4979518;28;20023;-78
2022/01/17 08:20:48;;;;;;;20.42;6.68;;;5.10;99.90;;;;;;4977320;28;20072;-79
2022/01/17 08:23:13;;;;;;;16.02;5.90;;;5.10;99.90;;;;;;4980679;28;20031;-78
2022/01/17 08:25:39;;;;;;;14.38;5.45;;;5.10;99.90;;;;;;4985111;28;20022;-76
2022/01/17 08:28:05;;;;;;;16.23;5.35;;;5.10;99.90;;;;;;4978421;28;20054;-78
2022/01/17 08:30:32;;;;;;;16.05;5.80;;;5.20;99.90;;;;;;4983951;28;20026;-78
2022/01/17 08:32:59;;;;;;;16.45;5.70;;;5.20;99.90;;;;;;4983436;28;20589;-78
2022/01/17 08:35:25;;;;;;;17.02;5.75;;;5.10;99.90;;;;;;4967672;28;20037;-77
2022/01/17 08:37:51;;;;;;;14.77;5.43;;;5.20;99.90;;;;;;4978558;28;20027;-78
2022/01/17 08:40:18;;;;;;;15.18;5.25;;;5.30;99.90;;;;;;4977210;28;20026;-78
2022/01/17 08:42:44;;;;;;;14.65;4.63;;;5.30;99.90;;;;;;4972881;28;20058;-78
2022/01/17 08:45:13;;;;;;;18.42;5.15;;;5.30;99.90;;;;;;4982982;28;20046;-76
2022/01/17 08:47:39;;;;;;;9.60;4.88;;;5.30;99.90;;;;;;4980323;28;20163;-77
2022/01/17 08:50:06;;;;;;;16.85;5.25;;;5.40;99.90;;;;;;4980291;28;20474;-76
2022/01/17 08:52:32;;;;;;;10.75;4.45;;;5.40;99.90;;;;;;4980276;28;20244;-78
2022/01/17 08:54:58;;;;;;;12.98;4.13;;;5.30;99.90;;;;;;4980571;28;20027;-76
2022/01/17 08:57:24;;;;;;;10.35;4.32;;;5.30;99.90;;;;;;4978947;28;20303;-76
2022/01/17 08:59:50;;;;;;;15.38;5.07;;;5.40;99.90;;;;;;4988485;28;20260;-78
2022/01/17 09:02:16;;;;;;;13.73;4.45;;;5.40;99.90;;;;;;4983836;28;20073;-78
2022/01/17 09:04:42;;;;;;;14.48;4.25;;;5.40;99.90;;;;;;4986350;28;20045;-78
2022/01/17 09:07:09;;;;;;;14.20;4.07;;;5.50;99.90;;;;;;4987749;28;20042;-78
2022/01/17 09:09:36;;;;;;;12.43;4.80;;;5.50;99.90;;;;;;4986890;28;20037;-78
2022/01/17 09:12:02;;;;;;;13.88;4.10;;;5.50;99.90;;;;;;4983384;28;20517;-78
2022/01/17 09:14:28;;;;;;;11.73;4.10;;;5.50;99.90;;;;;;4975802;28;20362;-78
2022/01/17 09:16:54;;;;;;;11.52;4.43;;;5.60;99.90;;;;;;4979332;28;20748;-78
2022/01/17 09:19:19;;;;;;;12.13;5.30;;;5.60;99.90;;;;;;4983582;28;20037;-80
2022/01/17 09:21:45;;;;;;;11.60;4.05;;;5.60;99.90;;;;;;4977568;28;20031;-79
2022/01/17 09:24:10;;;;;;;12.05;4.57;;;5.70;99.90;;;;;;4987783;28;20358;-78
2022/01/17 09:26:36;;;;;;;14.00;4.40;;;5.70;99.90;;;;;;4976942;28;20096;-80
2022/01/17 09:29:02;;;;;;;10.00;4.40;;;5.80;99.90;;;;;;4980506;28;20525;-80
2022/01/17 09:31:28;;;;;;;13.13;4.38;;;5.80;99.90;;;;;;4982337;28;20022;-75
2022/01/17 09:33:54;;;;;;;11.02;3.97;;;5.90;99.90;;;;;;4985614;28;20038;-76
2022/01/17 09:36:20;;;;;;;11.25;3.95;;;5.90;99.90;;;;;;4979953;28;20757;-80
2022/01/17 09:38:46;;;;;;;9.77;4.45;;;;;;;;;;4979995;28;20161;-78
2022/01/17 09:41:12;;;;;;;8.10;3.53;;;;;;;;;;4982533;28;20040;-76
2022/01/17 09:43:39;;;;;;;9.30;4.00;;;;;;;;;;4980525;28;20034;-77
2022/01/17 09:46:05;;;;;;;6.90;3.70;;;;;;;;;;4983640;28;20030;-77
2022/01/17 09:48:37;;;;;;;8.07;3.88;;;;;;;;;;4989291;28;20034;-75
2022/01/17 09:51:40;;;;;;;6.88;3.47;;;6.50;99.90;;;;;;4986353;28;20518;-77
2022/01/17 09:54:03;;;;;;;7.90;3.47;;;6.50;99.90;;;;;;4983392;28;20074;-76
2022/01/17 09:56:30;;;;;;;9.32;3.70;;;6.40;99.90;;;;;;4987569;28;20105;-75
2022/01/17 09:58:57;;;;;;;10.70;4.10;;;6.40;99.90;;;;;;4976661;28;20130;-77
2022/01/17 10:01:24;;;;;;;7.97;3.50;;;6.40;99.90;;;;;;4972829;28;20482;-79
2022/01/17 10:03:51;;;;;;;7.38;3.60;;;6.50;99.90;;;;;;4988716;28;20358;-77
2022/01/17 10:06:17;;;;;;;10.13;3.97;;;6.40;99.90;;;;;;4984826;28;20041;-77
2022/01/17 10:08:42;;;;;;;7.65;3.58;;;6.30;99.90;;;;;;4986531;28;20022;-78
2022/01/17 10:11:15;;;;;;;6.63;3.20;;;6.30;99.90;;;;;;4983648;28;20030;-75
2022/01/17 10:13:44;;;;;;;;;;;6.20;99.90;;;;;;4978053;28;20050;-76
2022/01/17 10:16:19;;;;;;;7.40;3.28;;;6.20;99.90;;;;;;4984185;28;19913;-76
2022/01/17 10:18:50;;;;;;;4.68;3.20;;;6.20;99.90;;;;;;4981556;28;20042;-77
2022/01/17 10:21:42;;;;;;;5.18;3.30;;;6.20;99.90;;;;;;4978855;28;20463;-76
2022/01/17 10:24:27;;;;;;;3.95;2.85;;;6.20;99.90;;;;;;4971778;28;20472;-76
2022/01/17 10:35:13;;;;;;;6.32;3.60;;;6.20;99.90;;;;;;4980365;28;20073;-76
2022/01/17 10:37:39;;;;;;;7.55;3.92;;;6.20;99.90;;;;;;4983994;28;20506;-78
2022/01/17 10:40:15;;;;;;;6.22;3.90;;;6.10;99.90;;;;;;4986648;28;20034;-78
2022/01/17 10:42:46;;;;;;;5.97;3.38;;;6.10;99.90;;;;;;4980346;28;20513;-78
2022/01/17 10:45:13;;;;;;;9.00;3.70;;;6.10;99.90;;;;;;4982454;28;20045;-78
2022/01/17 10:47:43;;;;;;;5.75;3.42;;;6.10;99.90;;;;;;4987020;28;20030;-78
2022/01/17 10:50:33;;;;;;;6.72;3.30;;;6.10;99.90;;;;;;4979051;28;20424;-76
2022/01/17 10:53:01;;;;;;;5.95;4.05;;;6.00;99.90;;;;;;4972689;28;20382;-79
2022/01/17 10:55:28;;;;;;;6.25;3.45;;;6.00;99.90;;;;;;4986945;28;20022;-78
2022/01/17 10:58:17;;;;;;;5.95;3.85;;;5.90;99.90;;;;;;4980594;28;20109;-78
2022/01/17 11:00:45;;;;;;;5.95;3.30;;;5.90;99.90;;;;;;4980961;28;20026;-77
2022/01/17 11:03:19;;;;;;;6.45;3.83;;;5.90;99.90;;;;;;4973302;28;20023;-76
2022/01/17 11:05:52;;;;;;;5.35;4.15;;;5.90;99.90;;;;;;4979906;28;20194;-76
2022/01/17 11:08:19;;;;;;;4.72;3.90;;;5.90;99.90;;;;;;4982658;28;20034;-76
2022/01/17 11:10:47;;;;;;;4.32;3.75;;;5.90;99.90;;;;;;4981633;28;20275;-76
2022/01/17 11:13:16;;;;;;;5.35;4.10;;;5.90;99.90;;;;;;4975365;28;20085;-76
2022/01/17 11:15:46;;;;;;;4.78;3.58;;;5.90;99.90;;;;;;4974970;28;20030;-76
2022/01/17 11:18:19;;;;;;;5.07;3.80;;;5.90;99.90;;;;;;4984946;28;20414;-76
2022/01/17 11:20:46;;;;;;;5.53;4.47;;;5.90;99.90;;;;;;4979586;28;20019;-76
2022/01/17 11:23:12;;;;;;;6.65;4.70;;;5.90;99.90;;;;;;4982856;28;20045;-76
2022/01/17 11:25:44;;;;;;;5.95;3.80;;;5.90;99.90;;;;;;4978270;28;20050;-76
2022/01/17 11:28:11;;;;;;;4.88;2.63;;;6.00;99.90;;;;;;4985658;28;20044;-76
2022/01/17 11:30:39;;;;;;;5.47;3.30;;;6.00;99.90;;;;;;4977682;28;20498;-77
2022/01/17 11:33:08;;;;;;;4.18;3.45;;;5.90;99.90;;;;;;4982020;28;20053;-74
2022/01/17 11:35:40;;;;;;;4.25;3.60;;;6.00;99.90;;;;;;4979960;28;21151;-74
2022/01/17 11:38:15;;;;;;;4.00;3.22;;;6.00;99.90;;;;;;4983064;28;20095;-74
2022/01/17 11:40:42;;;;;;;3.78;3.10;;;5.90;99.90;;;;;;4981934;28;20093;-73
2022/01/17 11:43:33;;;;;;;3.85;3.10;;;5.90;99.90;;;;;;4984492;28;20499;-74
2022/01/17 11:46:19;;;;;;;6.65;3.20;;;5.90;99.90;;;;;;4984940;28;20262;-74
2022/01/17 11:48:56;;;;;;;5.38;3.20;;;5.90;99.90;;;;;;4977549;28;20411;-73
2022/01/17 11:51:22;;;;;;;3.55;3.00;;;6.00;99.90;;;;;;4984395;28;20030;-73
2022/01/17 11:53:50;;;;;;;3.55;3.05;;;6.00;99.90;;;;;;4983999;28;20033;-73
2022/01/17 11:56:35;;;;;;;4.93;2.90;;;6.00;99.90;;;;;;4973765;28;20030;-73
2022/01/17 11:59:01;;;;;;;3.75;3.20;;;6.00;99.90;;;;;;4979220;28;20454;-72
2022/01/17 12:01:26;;;;;;;2.90;2.60;;;6.00;99.90;;;;;;4980911;28;20023;-73
2022/01/17 12:03:55;;;;;;;2.97;2.67;;;6.00;99.90;;;;;;4975003;28;20030;-73
2022/01/17 12:06:35;;;;;;;2.97;2.63;;;6.00;99.90;;;;;;4979867;28;20037;-73
2022/01/17 12:09:16;;;;;;;3.20;2.90;;;6.00;99.90;;;;;;4973675;28;20023;-74
2022/01/17 12:11:42;;;;;;;5.25;2.50;;;6.00;99.90;;;;;;4978866;28;20137;-74
2022/01/17 12:14:29;;;;;;;4.38;2.85;;;6.00;99.90;;;;;;4980048;28;20509;-74
2022/01/17 12:17:35;;;;;;;2.45;2.25;;;6.00;99.90;;;;;;4978306;28;20441;-74
2022/01/17 12:20:03;;;;;;;2.33;2.00;;;6.00;99.90;;;;;;4978333;28;20037;-74
2022/01/17 12:22:52;;;;;;;3.17;2.50;;;6.00;99.90;;;;;;4970597;28;20029;-74
2022/01/17 12:25:31;;;;;;;6.40;3.97;;;6.00;99.90;;;;;;4973444;28;20482;-74
2022/01/17 12:28:03;;;;;;;3.83;3.10;;;6.00;99.90;;;;;;4967139;28;20093;-74
2022/01/17 12:30:41;;;;;;;4.75;3.17;;;6.00;99.90;;;;;;4975555;28;20060;-75
2022/01/17 12:33:11;;;;;;;3.78;2.50;;;5.90;99.90;;;;;;4969914;28;20046;-75
2022/01/17 12:35:46;;;;;;;4.25;2.20;;;5.90;99.90;;;;;;4975456;28;20030;-75
2022/01/17 12:38:28;;;;;;;4.35;2.42;;;5.90;99.90;;;;;;4974445;28;20427;-75
2022/01/17 12:40:54;;;;;;;5.75;2.58;;;5.90;99.90;;;;;;4984311;28;20038;-75
2022/01/17 12:43:24;;;;;;;3.92;2.63;;;5.90;99.90;;;;;;4984474;28;20038;-75
2022/01/17 12:45:59;;;;;;;3.47;2.40;;;6.00;99.90;;;;;;4982796;28;20038;-75
2022/01/17 12:48:27;;;;;;;3.20;2.45;;;6.00;99.90;;;;;;4978296;28;20026;-75
2022/01/17 12:50:54;;;;;;;8.00;3.22;;;6.00;99.90;;;;;;4983431;28;20034;-74
2022/01/17 12:53:25;;;;;;;5.00;3.05;;;5.90;99.90;;;;;;4975989;28;20113;-74
2022/01/17 12:56:00;;;;;;;4.95;3.42;;;5.90;99.90;;;;;;4974383;28;20061;-74
2022/01/17 12:58:32;;;;;;;5.07;2.80;;;5.90;99.90;;;;;;4971901;28;20030;-75
2022/01/17 13:01:05;;;;;;;5.72;3.60;;;5.90;99.90;;;;;;4983297;28;20026;-75
2022/01/17 13:03:35;;;;;;;4.32;3.25;;;5.90;99.90;;;;;;4970340;28;20030;-76
2022/01/17 13:06:03;;;;;;;5.60;3.55;;;5.90;99.90;;;;;;4977817;28;20049;-76
2022/01/17 13:08:29;;;;;;;6.50;3.78;;;6.00;99.90;;;;;;4972555;28;20046;-76
2022/01/17 13:10:55;;;;;;;5.88;3.63;;;6.00;99.90;;;;;;4993251;28;20034;-75